sensor_id;sensor_type;location;lat;lon;timestamp;P1;durP1;ratioP1;P2;durP2;ratioP2
12459;SDS011;6295;49.452;8.466;2022-07-29T00:02:08;5.60;;;5.10;;
12459;SDS011;6295;49.452;8.466;2022-07-29T00:06:10;5.67;;;5.10;;
12459;SDS011;6295;49.452;8.466;2022-07-29T00:10:12;5.83;;;5.10;;
12459;SDS011;6295;49.452;8.466;2022-07-29T00:14:14;5.17;;;4.67;;
12459;SDS011;6295;49.452;8.466;2022-07-29T00:18:18;5.60;;;5.00;;
12459;SDS011;6295;49.452;8.466;2022-07-29T00:22:21;5.80;;;5.07;;
12459;SDS011;6295;49.452;8.466;2022-07-29T00:26:23;5.27;;;4.80;;
12459;SDS011;6295;49.452;8.466;2022-07-29T00:30:27;5.73;;;5.17;;
12459;SDS011;6295;49.452;8.466;2022-07-29T00:34:31;5.30;;;4.80;;
12459;SDS011;6295;49.452;8.466;2022-07-29T00:38:51;5.40;;;4.90;;
12459;SDS011;6295;49.452;8.466;2022-07-29T00:42:53;5.30;;;4.90;;
12459;SDS011;6295;49.452;8.466;2022-07-29T00:46:55;5.30;;;4.77;;
12459;SDS011;6295;49.452;8.466;2022-07-29T00:50:59;5.17;;;4.73;;
12459;SDS011;6295;49.452;8.466;2022-07-29T00:55:03;5.50;;;5.00;;
12459;SDS011;6295;49.452;8.466;2022-07-29T00:59:06;6.30;;;4.87;;
12459;SDS011;6295;49.452;8.466;2022-07-29T01:03:08;5.57;;;5.07;;
12459;SDS011;6295;49.452;8.466;2022-07-29T01:07:12;5.30;;;4.90;;
12459;SDS011;6295;49.452;8.466;2022-07-29T01:11:14;5.40;;;5.00;;
12459;SDS011;6295;49.452;8.466;2022-07-29T01:15:18;5.27;;;4.77;;
12459;SDS011;6295;49.452;8.466;2022-07-29T01:19:30;5.30;;;4.80;;
12459;SDS011;6295;49.452;8.466;2022-07-29T01:23:51;5.60;;;5.10;;
12459;SDS011;6295;49.452;8.466;2022-07-29T01:28:08;5.50;;;5.03;;
12459;SDS011;6295;49.452;8.466;2022-07-29T01:32:24;5.20;;;4.80;;
12459;SDS011;6295;49.452;8.466;2022-07-29T01:36:30;5.77;;;5.20;;
12459;SDS011;6295;49.452;8.466;2022-07-29T01:40:37;5.83;;;5.23;;
12459;SDS011;6295;49.452;8.466;2022-07-29T01:44:45;5.40;;;4.90;;
12459;SDS011;6295;49.452;8.466;2022-07-29T01:48:53;5.50;;;5.10;;
12459;SDS011;6295;49.452;8.466;2022-07-29T01:52:58;6.00;;;5.40;;
12459;SDS011;6295;49.452;8.466;2022-07-29T01:57:02;5.47;;;5.07;;
12459;SDS011;6295;49.452;8.466;2022-07-29T02:01:05;5.80;;;5.20;;
12459;SDS011;6295;49.452;8.466;2022-07-29T02:05:12;5.87;;;5.33;;
12459;SDS011;6295;49.452;8.466;2022-07-29T02:09:17;5.50;;;5.10;;
12459;SDS011;6295;49.452;8.466;2022-07-29T02:13:21;6.23;;;5.53;;
12459;SDS011;6295;49.452;8.466;2022-07-29T02:17:27;5.83;;;5.23;;
12459;SDS011;6295;49.452;8.466;2022-07-29T02:21:32;5.97;;;5.47;;
12459;SDS011;6295;49.452;8.466;2022-07-29T02:25:35;5.50;;;5.10;;
12459;SDS011;6295;49.452;8.466;2022-07-29T02:29:40;5.90;;;5.40;;
12459;SDS011;6295;49.452;8.466;2022-07-29T02:33:43;6.03;;;5.40;;
12459;SDS011;6295;49.452;8.466;2022-07-29T02:37:48;6.00;;;5.50;;
12459;SDS011;6295;49.452;8.466;2022-07-29T02:42:07;5.83;;;5.33;;
12459;SDS011;6295;49.452;8.466;2022-07-29T02:46:13;5.60;;;5.10;;
12459;SDS011;6295;49.452;8.466;2022-07-29T02:50:21;5.80;;;5.30;;
12459;SDS011;6295;49.452;8.466;2022-07-29T02:54:33;5.87;;;5.37;;
12459;SDS011;6295;49.452;8.466;2022-07-29T02:58:40;5.53;;;5.13;;
12459;SDS011;6295;49.452;8.466;2022-07-29T03:02:50;6.50;;;4.90;;
12459;SDS011;6295;49.452;8.466;2022-07-29T03:06:55;5.47;;;5.07;;
12459;SDS011;6295;49.452;8.466;2022-07-29T03:11:02;5.33;;;4.93;;
12459;SDS011;6295;49.452;8.466;2022-07-29T03:15:05;5.60;;;5.10;;
12459;SDS011;6295;49.452;8.466;2022-07-29T03:19:08;6.17;;;5.57;;
12459;SDS011;6295;49.452;8.466;2022-07-29T03:23:11;5.77;;;5.37;;
12459;SDS011;6295;49.452;8.466;2022-07-29T03:27:14;7.47;;;5.27;;
12459;SDS011;6295;49.452;8.466;2022-07-29T03:31:16;5.27;;;4.83;;
12459;SDS011;6295;49.452;8.466;2022-07-29T03:35:18;5.53;;;5.07;;
12459;SDS011;6295;49.452;8.466;2022-07-29T03:39:21;5.63;;;5.03;;
12459;SDS011;6295;49.452;8.466;2022-07-29T03:43:28;5.30;;;4.80;;
12459;SDS011;6295;49.452;8.466;2022-07-29T03:47:34;6.03;;;5.27;;
12459;SDS011;6295;49.452;8.466;2022-07-29T03:51:40;5.53;;;4.90;;
12459;SDS011;6295;49.452;8.466;2022-07-29T03:55:43;5.10;;;4.60;;
12459;SDS011;6295;49.452;8.466;2022-07-29T03:59:49;5.60;;;5.00;;
12459;SDS011;6295;49.452;8.466;2022-07-29T04:03:52;5.67;;;5.00;;
12459;SDS011;6295;49.452;8.466;2022-07-29T04:07:55;5.27;;;4.80;;
12459;SDS011;6295;49.452;8.466;2022-07-29T04:11:57;5.20;;;4.70;;
12459;SDS011;6295;49.452;8.466;2022-07-29T04:16:01;5.23;;;4.73;;
12459;SDS011;6295;49.452;8.466;2022-07-29T04:20:03;5.30;;;4.90;;
12459;SDS011;6295;49.452;8.466;2022-07-29T04:24:06;6.53;;;5.10;;
12459;SDS011;6295;49.452;8.466;2022-07-29T04:28:09;5.27;;;4.77;;
12459;SDS011;6295;49.452;8.466;2022-07-29T04:32:13;5.77;;;5.17;;
12459;SDS011;6295;49.452;8.466;2022-07-29T04:36:15;5.33;;;4.83;;
12459;SDS011;6295;49.452;8.466;2022-07-29T04:40:17;5.30;;;4.80;;
12459;SDS011;6295;49.452;8.466;2022-07-29T04:44:20;5.80;;;5.20;;
12459;SDS011;6295;49.452;8.466;2022-07-29T04:48:24;4.90;;;4.50;;
12459;SDS011;6295;49.452;8.466;2022-07-29T04:52:26;5.63;;;5.03;;
12459;SDS011;6295;49.452;8.466;2022-07-29T04:56:29;5.60;;;4.73;;
12459;SDS011;6295;49.452;8.466;2022-07-29T05:00:31;5.57;;;4.90;;
12459;SDS011;6295;49.452;8.466;2022-07-29T05:04:35;5.67;;;5.07;;
12459;SDS011;6295;49.452;8.466;2022-07-29T05:08:37;6.20;;;5.07;;
12459;SDS011;6295;49.452;8.466;2022-07-29T05:12:39;5.23;;;4.73;;
12459;SDS011;6295;49.452;8.466;2022-07-29T05:16:42;5.33;;;4.90;;
12459;SDS011;6295;49.452;8.466;2022-07-29T05:20:46;5.40;;;4.90;;
12459;SDS011;6295;49.452;8.466;2022-07-29T05:24:48;7.13;;;4.90;;
12459;SDS011;6295;49.452;8.466;2022-07-29T05:28:50;5.93;;;4.97;;
12459;SDS011;6295;49.452;8.466;2022-07-29T05:32:53;6.67;;;4.90;;
12459;SDS011;6295;49.452;8.466;2022-07-29T05:36:57;5.60;;;5.03;;
12459;SDS011;6295;49.452;8.466;2022-07-29T05:40:59;5.43;;;4.80;;
12459;SDS011;6295;49.452;8.466;2022-07-29T05:45:02;9.10;;;5.03;;
12459;SDS011;6295;49.452;8.466;2022-07-29T05:49:05;9.30;;;4.87;;
12459;SDS011;6295;49.452;8.466;2022-07-29T05:53:09;10.17;;;5.07;;
12459;SDS011;6295;49.452;8.466;2022-07-29T05:57:14;9.70;;;5.00;;
12459;SDS011;6295;49.452;8.466;2022-07-29T06:01:17;9.33;;;4.97;;
12459;SDS011;6295;49.452;8.466;2022-07-29T06:05:19;6.93;;;4.73;;
12459;SDS011;6295;49.452;8.466;2022-07-29T06:09:23;8.70;;;4.60;;
12459;SDS011;6295;49.452;8.466;2022-07-29T06:13:26;8.17;;;4.37;;
12459;SDS011;6295;49.452;8.466;2022-07-29T06:17:28;6.10;;;4.23;;
12459;SDS011;6295;49.452;8.466;2022-07-29T06:21:30;5.07;;;3.93;;
12459;SDS011;6295;49.452;8.466;2022-07-29T06:25:33;10.40;;;4.77;;
12459;SDS011;6295;49.452;8.466;2022-07-29T06:29:36;7.23;;;4.07;;
12459;SDS011;6295;49.452;8.466;2022-07-29T06:33:39;6.83;;;4.10;;
12459;SDS011;6295;49.452;8.466;2022-07-29T06:37:41;6.23;;;3.83;;
12459;SDS011;6295;49.452;8.466;2022-07-29T06:41:47;4.50;;;3.77;;
12459;SDS011;6295;49.452;8.466;2022-07-29T06:45:50;5.37;;;3.60;;
12459;SDS011;6295;49.452;8.466;2022-07-29T06:49:52;4.10;;;3.67;;
12459;SDS011;6295;49.452;8.466;2022-07-29T06:53:55;4.83;;;4.33;;
12459;SDS011;6295;49.452;8.466;2022-07-29T06:57:59;6.33;;;4.40;;
12459;SDS011;6295;49.452;8.466;2022-07-29T07:02:01;5.10;;;4.27;;
12459;SDS011;6295;49.452;8.466;2022-07-29T07:06:03;4.70;;;4.30;;
12459;SDS011;6295;49.452;8.466;2022-07-29T07:10:06;5.30;;;4.57;;
12459;SDS011;6295;49.452;8.466;2022-07-29T07:14:10;4.53;;;4.13;;
12459;SDS011;6295;49.452;8.466;2022-07-29T07:18:12;5.53;;;4.43;;
12459;SDS011;6295;49.452;8.466;2022-07-29T07:22:15;4.50;;;4.10;;
12459;SDS011;6295;49.452;8.466;2022-07-29T07:26:17;8.20;;;4.43;;
12459;SDS011;6295;49.452;8.466;2022-07-29T07:30:20;4.70;;;4.30;;
12459;SDS011;6295;49.452;8.466;2022-07-29T07:34:23;5.50;;;4.43;;
12459;SDS011;6295;49.452;8.466;2022-07-29T07:38:25;5.30;;;4.80;;
12459;SDS011;6295;49.452;8.466;2022-07-29T07:42:27;4.80;;;4.40;;
12459;SDS011;6295;49.452;8.466;2022-07-29T07:46:31;7.10;;;4.47;;
12459;SDS011;6295;49.452;8.466;2022-07-29T07:50:33;5.30;;;4.80;;
12459;SDS011;6295;49.452;8.466;2022-07-29T07:54:35;4.97;;;4.47;;
12459;SDS011;6295;49.452;8.466;2022-07-29T07:58:37;6.03;;;5.00;;
12459;SDS011;6295;49.452;8.466;2022-07-29T08:02:42;5.77;;;5.17;;
12459;SDS011;6295;49.452;8.466;2022-07-29T08:06:45;5.97;;;4.60;;
12459;SDS011;6295;49.452;8.466;2022-07-29T08:10:49;5.20;;;4.70;;
12459;SDS011;6295;49.452;8.466;2022-07-29T08:14:55;6.57;;;4.80;;
12459;SDS011;6295;49.452;8.466;2022-07-29T08:18:59;7.83;;;5.20;;
12459;SDS011;6295;49.452;8.466;2022-07-29T08:23:01;6.00;;;5.17;;
12459;SDS011;6295;49.452;8.466;2022-07-29T08:27:06;6.03;;;5.20;;
12459;SDS011;6295;49.452;8.466;2022-07-29T08:31:08;5.67;;;5.10;;
12459;SDS011;6295;49.452;8.466;2022-07-29T08:35:12;5.90;;;5.30;;
12459;SDS011;6295;49.452;8.466;2022-07-29T08:39:14;6.57;;;5.47;;
12459;SDS011;6295;49.452;8.466;2022-07-29T08:43:16;6.23;;;5.63;;
12459;SDS011;6295;49.452;8.466;2022-07-29T08:47:18;6.73;;;5.80;;
12459;SDS011;6295;49.452;8.466;2022-07-29T08:51:22;6.23;;;5.50;;
12459;SDS011;6295;49.452;8.466;2022-07-29T08:55:26;6.50;;;5.90;;
12459;SDS011;6295;49.452;8.466;2022-07-29T08:59:28;6.27;;;5.40;;
12459;SDS011;6295;49.452;8.466;2022-07-29T09:03:36;5.90;;;5.37;;
12459;SDS011;6295;49.452;8.466;2022-07-29T09:07:41;6.60;;;5.63;;
12459;SDS011;6295;49.452;8.466;2022-07-29T09:11:44;6.37;;;5.40;;
12459;SDS011;6295;49.452;8.466;2022-07-29T09:15:47;5.40;;;4.90;;
12459;SDS011;6295;49.452;8.466;2022-07-29T09:19:49;6.53;;;5.57;;
12459;SDS011;6295;49.452;8.466;2022-07-29T09:24:03;6.37;;;5.27;;
12459;SDS011;6295;49.452;8.466;2022-07-29T09:28:06;5.83;;;5.33;;
12459;SDS011;6295;49.452;8.466;2022-07-29T09:32:09;8.67;;;5.33;;
12459;SDS011;6295;49.452;8.466;2022-07-29T09:36:12;6.10;;;5.50;;
12459;SDS011;6295;49.452;8.466;2022-07-29T09:40:17;7.70;;;5.70;;
12459;SDS011;6295;49.452;8.466;2022-07-29T09:44:21;6.07;;;5.43;;
12459;SDS011;6295;49.452;8.466;2022-07-29T09:48:25;5.93;;;5.40;;
12459;SDS011;6295;49.452;8.466;2022-07-29T09:52:29;6.50;;;5.73;;
12459;SDS011;6295;49.452;8.466;2022-07-29T09:56:40;6.50;;;5.70;;
12459;SDS011;6295;49.452;8.466;2022-07-29T10:00:43;6.63;;;5.97;;
12459;SDS011;6295;49.452;8.466;2022-07-29T10:04:47;6.00;;;5.50;;
12459;SDS011;6295;49.452;8.466;2022-07-29T10:08:49;6.20;;;5.33;;
12459;SDS011;6295;49.452;8.466;2022-07-29T10:12:54;6.47;;;5.33;;
12459;SDS011;6295;49.452;8.466;2022-07-29T10:16:57;6.13;;;5.53;;
12459;SDS011;6295;49.452;8.466;2022-07-29T10:21:01;6.20;;;5.40;;
12459;SDS011;6295;49.452;8.466;2022-07-29T10:25:03;6.70;;;5.43;;
12459;SDS011;6295;49.452;8.466;2022-07-29T10:29:07;6.13;;;5.33;;
12459;SDS011;6295;49.452;8.466;2022-07-29T10:33:18;5.90;;;5.40;;
12459;SDS011;6295;49.452;8.466;2022-07-29T10:37:37;7.70;;;5.53;;
12459;SDS011;6295;49.452;8.466;2022-07-29T10:46:18;6.03;;;5.43;;
12459;SDS011;6295;49.452;8.466;2022-07-29T10:50:20;6.43;;;5.60;;
12459;SDS011;6295;49.452;8.466;2022-07-29T10:58:45;7.50;;;5.50;;
12459;SDS011;6295;49.452;8.466;2022-07-29T11:03:46;8.67;;;5.53;;
12459;SDS011;6295;49.452;8.466;2022-07-29T11:16:59;9.53;;;5.50;;
12459;SDS011;6295;49.452;8.466;2022-07-29T11:21:07;6.43;;;5.80;;
12459;SDS011;6295;49.452;8.466;2022-07-29T11:25:38;6.33;;;5.60;;
12459;SDS011;6295;49.452;8.466;2022-07-29T11:29:47;6.77;;;5.50;;
12459;SDS011;6295;49.452;8.466;2022-07-29T11:33:53;5.60;;;5.10;;
12459;SDS011;6295;49.452;8.466;2022-07-29T11:42:39;7.40;;;5.70;;
12459;SDS011;6295;49.452;8.466;2022-07-29T11:46:46;7.47;;;5.73;;
12459;SDS011;6295;49.452;8.466;2022-07-29T11:50:49;6.17;;;5.57;;
12459;SDS011;6295;49.452;8.466;2022-07-29T11:54:53;5.50;;;5.00;;
12459;SDS011;6295;49.452;8.466;2022-07-29T11:59:03;6.33;;;5.20;;
12459;SDS011;6295;49.452;8.466;2022-07-29T12:03:10;7.17;;;5.20;;
12459;SDS011;6295;49.452;8.466;2022-07-29T12:07:13;5.30;;;4.77;;
12459;SDS011;6295;49.452;8.466;2022-07-29T12:11:18;6.33;;;4.83;;
12459;SDS011;6295;49.452;8.466;2022-07-29T12:15:22;7.50;;;4.77;;
12459;SDS011;6295;49.452;8.466;2022-07-29T12:19:26;6.77;;;5.10;;
12459;SDS011;6295;49.452;8.466;2022-07-29T12:23:29;5.93;;;4.97;;
12459;SDS011;6295;49.452;8.466;2022-07-29T12:27:32;5.30;;;4.80;;
12459;SDS011;6295;49.452;8.466;2022-07-29T12:31:34;6.53;;;4.87;;
12459;SDS011;6295;49.452;8.466;2022-07-29T12:35:36;7.90;;;4.70;;
12459;SDS011;6295;49.452;8.466;2022-07-29T12:39:39;8.03;;;4.33;;
12459;SDS011;6295;49.452;8.466;2022-07-29T12:43:52;6.57;;;4.60;;
12459;SDS011;6295;49.452;8.466;2022-07-29T12:47:55;6.83;;;4.80;;
12459;SDS011;6295;49.452;8.466;2022-07-29T12:51:57;6.70;;;5.03;;
12459;SDS011;6295;49.452;8.466;2022-07-29T12:56:01;5.37;;;4.87;;
12459;SDS011;6295;49.452;8.466;2022-07-29T13:00:07;5.73;;;5.13;;
12459;SDS011;6295;49.452;8.466;2022-07-29T13:04:11;5.87;;;5.20;;
12459;SDS011;6295;49.452;8.466;2022-07-29T13:08:26;9.43;;;5.43;;
12459;SDS011;6295;49.452;8.466;2022-07-29T13:12:28;5.60;;;5.03;;
12459;SDS011;6295;49.452;8.466;2022-07-29T13:16:32;6.70;;;5.40;;
12459;SDS011;6295;49.452;8.466;2022-07-29T13:20:34;6.43;;;5.27;;
12459;SDS011;6295;49.452;8.466;2022-07-29T13:24:46;5.57;;;5.07;;
12459;SDS011;6295;49.452;8.466;2022-07-29T13:28:49;5.23;;;4.73;;
12459;SDS011;6295;49.452;8.466;2022-07-29T13:32:53;6.10;;;5.50;;
12459;SDS011;6295;49.452;8.466;2022-07-29T13:36:55;6.20;;;5.57;;
12459;SDS011;6295;49.452;8.466;2022-07-29T13:40:58;7.00;;;5.03;;
12459;SDS011;6295;49.452;8.466;2022-07-29T13:45:02;5.67;;;5.27;;
12459;SDS011;6295;49.452;8.466;2022-07-29T13:49:08;6.00;;;4.93;;
12459;SDS011;6295;49.452;8.466;2022-07-29T13:53:12;5.37;;;4.90;;
12459;SDS011;6295;49.452;8.466;2022-07-29T13:57:14;5.33;;;4.83;;
12459;SDS011;6295;49.452;8.466;2022-07-29T14:01:17;4.90;;;4.50;;
12459;SDS011;6295;49.452;8.466;2022-07-29T14:05:20;6.13;;;4.60;;
12459;SDS011;6295;49.452;8.466;2022-07-29T14:09:22;5.20;;;4.67;;
12459;SDS011;6295;49.452;8.466;2022-07-29T14:13:25;6.10;;;4.60;;
12459;SDS011;6295;49.452;8.466;2022-07-29T14:17:28;4.90;;;4.40;;
12459;SDS011;6295;49.452;8.466;2022-07-29T14:21:32;5.43;;;4.80;;
12459;SDS011;6295;49.452;8.466;2022-07-29T14:25:34;5.27;;;4.77;;
12459;SDS011;6295;49.452;8.466;2022-07-29T14:29:37;5.20;;;4.70;;
12459;SDS011;6295;49.452;8.466;2022-07-29T14:33:39;5.13;;;4.57;;
12459;SDS011;6295;49.452;8.466;2022-07-29T14:37:43;5.10;;;4.60;;
12459;SDS011;6295;49.452;8.466;2022-07-29T14:41:45;5.67;;;4.47;;
12459;SDS011;6295;49.452;8.466;2022-07-29T14:45:48;5.20;;;4.80;;
12459;SDS011;6295;49.452;8.466;2022-07-29T14:49:50;5.27;;;4.77;;
12459;SDS011;6295;49.452;8.466;2022-07-29T14:53:57;6.67;;;4.67;;
12459;SDS011;6295;49.452;8.466;2022-07-29T14:58:00;5.07;;;4.67;;
12459;SDS011;6295;49.452;8.466;2022-07-29T15:02:03;5.27;;;4.60;;
12459;SDS011;6295;49.452;8.466;2022-07-29T15:06:05;5.00;;;4.17;;
12459;SDS011;6295;49.452;8.466;2022-07-29T15:10:09;4.53;;;4.13;;
12459;SDS011;6295;49.452;8.466;2022-07-29T15:14:11;4.37;;;4.00;;
12459;SDS011;6295;49.452;8.466;2022-07-29T15:18:14;5.80;;;3.97;;
12459;SDS011;6295;49.452;8.466;2022-07-29T15:22:17;4.63;;;4.10;;
12459;SDS011;6295;49.452;8.466;2022-07-29T15:26:21;4.83;;;4.33;;
12459;SDS011;6295;49.452;8.466;2022-07-29T15:30:23;4.60;;;4.20;;
12459;SDS011;6295;49.452;8.466;2022-07-29T15:34:25;4.30;;;3.90;;
12459;SDS011;6295;49.452;8.466;2022-07-29T15:38:27;4.40;;;4.00;;
12459;SDS011;6295;49.452;8.466;2022-07-29T15:42:31;4.13;;;3.60;;
12459;SDS011;6295;49.452;8.466;2022-07-29T15:46:36;5.60;;;3.93;;
12459;SDS011;6295;49.452;8.466;2022-07-29T15:50:56;4.50;;;3.60;;
12459;SDS011;6295;49.452;8.466;2022-07-29T15:54:58;3.70;;;3.40;;
12459;SDS011;6295;49.452;8.466;2022-07-29T15:59:02;4.23;;;3.20;;
12459;SDS011;6295;49.452;8.466;2022-07-29T16:03:05;3.30;;;2.90;;
12459;SDS011;6295;49.452;8.466;2022-07-29T16:07:07;4.57;;;3.43;;
12459;SDS011;6295;49.452;8.466;2022-07-29T16:11:10;3.50;;;3.20;;
12459;SDS011;6295;49.452;8.466;2022-07-29T16:15:13;4.77;;;3.10;;
12459;SDS011;6295;49.452;8.466;2022-07-29T16:19:15;3.40;;;3.10;;
12459;SDS011;6295;49.452;8.466;2022-07-29T16:23:18;3.50;;;2.90;;
12459;SDS011;6295;49.452;8.466;2022-07-29T16:27:21;3.77;;;3.47;;
12459;SDS011;6295;49.452;8.466;2022-07-29T16:31:28;4.43;;;3.00;;
12459;SDS011;6295;49.452;8.466;2022-07-29T16:35:31;2.90;;;2.70;;
12459;SDS011;6295;49.452;8.466;2022-07-29T16:39:36;3.10;;;2.80;;
12459;SDS011;6295;49.452;8.466;2022-07-29T16:43:40;3.20;;;2.90;;
12459;SDS011;6295;49.452;8.466;2022-07-29T16:47:45;3.13;;;2.90;;
12459;SDS011;6295;49.452;8.466;2022-07-29T16:51:48;4.40;;;2.93;;
12459;SDS011;6295;49.452;8.466;2022-07-29T16:55:50;3.27;;;3.00;;
12459;SDS011;6295;49.452;8.466;2022-07-29T16:59:52;3.30;;;2.60;;
12459;SDS011;6295;49.452;8.466;2022-07-29T17:03:55;2.93;;;2.63;;
12459;SDS011;6295;49.452;8.466;2022-07-29T17:08:06;3.03;;;2.70;;
12459;SDS011;6295;49.452;8.466;2022-07-29T17:12:09;2.90;;;2.70;;
12459;SDS011;6295;49.452;8.466;2022-07-29T17:16:11;3.50;;;2.73;;
12459;SDS011;6295;49.452;8.466;2022-07-29T17:20:15;3.40;;;2.60;;
12459;SDS011;6295;49.452;8.466;2022-07-29T17:24:17;3.13;;;2.90;;
12459;SDS011;6295;49.452;8.466;2022-07-29T17:28:20;4.63;;;2.80;;
12459;SDS011;6295;49.452;8.466;2022-07-29T17:32:23;2.93;;;2.63;;
12459;SDS011;6295;49.452;8.466;2022-07-29T17:36:27;2.60;;;2.40;;
12459;SDS011;6295;49.452;8.466;2022-07-29T17:40:30;3.03;;;2.70;;
12459;SDS011;6295;49.452;8.466;2022-07-29T17:44:36;3.13;;;2.93;;
12459;SDS011;6295;49.452;8.466;2022-07-29T17:48:39;3.60;;;2.70;;
12459;SDS011;6295;49.452;8.466;2022-07-29T17:52:43;4.23;;;3.50;;
12459;SDS011;6295;49.452;8.466;2022-07-29T17:56:45;4.90;;;4.50;;
12459;SDS011;6295;49.452;8.466;2022-07-29T18:00:47;9.37;;;5.00;;
12459;SDS011;6295;49.452;8.466;2022-07-29T18:04:50;5.50;;;5.00;;
12459;SDS011;6295;49.452;8.466;2022-07-29T18:08:56;5.30;;;4.90;;
12459;SDS011;6295;49.452;8.466;2022-07-29T18:12:59;5.30;;;4.80;;
12459;SDS011;6295;49.452;8.466;2022-07-29T18:17:03;6.67;;;5.57;;
12459;SDS011;6295;49.452;8.466;2022-07-29T18:21:05;6.90;;;6.30;;
12459;SDS011;6295;49.452;8.466;2022-07-29T18:25:09;7.43;;;6.80;;
12459;SDS011;6295;49.452;8.466;2022-07-29T18:29:12;7.37;;;6.57;;
12459;SDS011;6295;49.452;8.466;2022-07-29T18:33:15;8.37;;;6.70;;
12459;SDS011;6295;49.452;8.466;2022-07-29T18:37:19;6.70;;;6.10;;
12459;SDS011;6295;49.452;8.466;2022-07-29T18:41:22;6.70;;;6.10;;
12459;SDS011;6295;49.452;8.466;2022-07-29T18:45:25;7.17;;;6.33;;
12459;SDS011;6295;49.452;8.466;2022-07-29T18:49:27;6.17;;;5.60;;
12459;SDS011;6295;49.452;8.466;2022-07-29T18:53:29;6.43;;;5.70;;
12459;SDS011;6295;49.452;8.466;2022-07-29T18:57:33;6.87;;;6.27;;
12459;SDS011;6295;49.452;8.466;2022-07-29T19:01:35;7.57;;;6.73;;
12459;SDS011;6295;49.452;8.466;2022-07-29T19:05:38;6.47;;;5.90;;
12459;SDS011;6295;49.452;8.466;2022-07-29T19:09:40;7.60;;;6.90;;
12459;SDS011;6295;49.452;8.466;2022-07-29T19:13:45;6.47;;;5.87;;
12459;SDS011;6295;49.452;8.466;2022-07-29T19:17:49;6.23;;;5.40;;
12459;SDS011;6295;49.452;8.466;2022-07-29T19:21:51;7.33;;;5.67;;
12459;SDS011;6295;49.452;8.466;2022-07-29T19:25:53;7.07;;;5.67;;
12459;SDS011;6295;49.452;8.466;2022-07-29T19:29:56;7.03;;;6.37;;
12459;SDS011;6295;49.452;8.466;2022-07-29T19:33:59;6.70;;;6.10;;
12459;SDS011;6295;49.452;8.466;2022-07-29T19:38:01;6.30;;;5.70;;
12459;SDS011;6295;49.452;8.466;2022-07-29T19:42:03;6.33;;;5.83;;
12459;SDS011;6295;49.452;8.466;2022-07-29T19:46:08;7.30;;;6.20;;
12459;SDS011;6295;49.452;8.466;2022-07-29T19:50:10;5.97;;;5.37;;
12459;SDS011;6295;49.452;8.466;2022-07-29T19:54:13;5.90;;;5.40;;
12459;SDS011;6295;49.452;8.466;2022-07-29T19:58:17;5.87;;;5.37;;
12459;SDS011;6295;49.452;8.466;2022-07-29T20:02:20;6.63;;;5.43;;
12459;SDS011;6295;49.452;8.466;2022-07-29T20:06:22;6.07;;;5.57;;
12459;SDS011;6295;49.452;8.466;2022-07-29T20:10:26;5.60;;;5.10;;
12459;SDS011;6295;49.452;8.466;2022-07-29T20:14:28;5.47;;;5.07;;
12459;SDS011;6295;49.452;8.466;2022-07-29T20:18:32;5.70;;;5.30;;
12459;SDS011;6295;49.452;8.466;2022-07-29T20:22:34;5.73;;;5.23;;
12459;SDS011;6295;49.452;8.466;2022-07-29T20:26:38;6.73;;;5.77;;
12459;SDS011;6295;49.452;8.466;2022-07-29T20:30:41;6.30;;;5.80;;
12459;SDS011;6295;49.452;8.466;2022-07-29T20:34:44;6.47;;;5.87;;
12459;SDS011;6295;49.452;8.466;2022-07-29T20:38:46;6.27;;;5.50;;
12459;SDS011;6295;49.452;8.466;2022-07-29T20:42:49;6.33;;;5.73;;
12459;SDS011;6295;49.452;8.466;2022-07-29T20:46:51;6.93;;;6.20;;
12459;SDS011;6295;49.452;8.466;2022-07-29T20:50:55;6.20;;;5.70;;
12459;SDS011;6295;49.452;8.466;2022-07-29T20:54:57;6.60;;;6.00;;
12459;SDS011;6295;49.452;8.466;2022-07-29T20:59:00;6.27;;;5.33;;
12459;SDS011;6295;49.452;8.466;2022-07-29T21:03:02;6.47;;;5.80;;
12459;SDS011;6295;49.452;8.466;2022-07-29T21:07:06;5.70;;;5.20;;
12459;SDS011;6295;49.452;8.466;2022-07-29T21:11:08;5.53;;;5.03;;
12459;SDS011;6295;49.452;8.466;2022-07-29T21:15:10;5.20;;;4.80;;
12459;SDS011;6295;49.452;8.466;2022-07-29T21:19:15;6.83;;;5.00;;
12459;SDS011;6295;49.452;8.466;2022-07-29T21:23:19;5.80;;;5.20;;
12459;SDS011;6295;49.452;8.466;2022-07-29T21:27:21;5.60;;;5.20;;
12459;SDS011;6295;49.452;8.466;2022-07-29T21:31:40;6.00;;;5.40;;
12459;SDS011;6295;49.452;8.466;2022-07-29T21:35:43;5.73;;;5.23;;
12459;SDS011;6295;49.452;8.466;2022-07-29T21:39:46;6.03;;;5.53;;
12459;SDS011;6295;49.452;8.466;2022-07-29T21:43:49;5.83;;;5.23;;
12459;SDS011;6295;49.452;8.466;2022-07-29T21:47:52;5.97;;;5.47;;
12459;SDS011;6295;49.452;8.466;2022-07-29T21:51:54;6.30;;;5.70;;
12459;SDS011;6295;49.452;8.466;2022-07-29T21:55:58;6.57;;;5.70;;
12459;SDS011;6295;49.452;8.466;2022-07-29T22:00:00;7.03;;;5.57;;
12459;SDS011;6295;49.452;8.466;2022-07-29T22:04:02;6.93;;;6.17;;
12459;SDS011;6295;49.452;8.466;2022-07-29T22:08:05;6.30;;;5.77;;
12459;SDS011;6295;49.452;8.466;2022-07-29T22:12:09;6.40;;;5.90;;
12459;SDS011;6295;49.452;8.466;2022-07-29T22:16:11;6.30;;;5.70;;
12459;SDS011;6295;49.452;8.466;2022-07-29T22:20:14;6.33;;;5.73;;
12459;SDS011;6295;49.452;8.466;2022-07-29T22:24:16;6.33;;;5.77;;
12459;SDS011;6295;49.452;8.466;2022-07-29T22:28:20;5.93;;;5.43;;
12459;SDS011;6295;49.452;8.466;2022-07-29T22:32:22;6.73;;;6.07;;
12459;SDS011;6295;49.452;8.466;2022-07-29T22:36:24;6.43;;;5.83;;
12459;SDS011;6295;49.452;8.466;2022-07-29T22:40:26;5.80;;;5.33;;
12459;SDS011;6295;49.452;8.466;2022-07-29T22:44:30;6.57;;;5.90;;
12459;SDS011;6295;49.452;8.466;2022-07-29T22:48:32;6.20;;;5.60;;
12459;SDS011;6295;49.452;8.466;2022-07-29T22:52:34;7.63;;;5.90;;
12459;SDS011;6295;49.452;8.466;2022-07-29T23:13:36;6.10;;;5.50;;
12459;SDS011;6295;49.452;8.466;2022-07-29T23:17:38;6.23;;;5.37;;
12459;SDS011;6295;49.452;8.466;2022-07-29T23:21:40;5.37;;;4.87;;
12459;SDS011;6295;49.452;8.466;2022-07-29T23:25:42;6.13;;;5.33;;
12459;SDS011;6295;49.452;8.466;2022-07-29T23:29:46;6.60;;;4.60;;
12459;SDS011;6295;49.452;8.466;2022-07-29T23:33:48;5.27;;;4.53;;
12459;SDS011;6295;49.452;8.466;2022-07-29T23:37:50;6.60;;;4.83;;
12459;SDS011;6295;49.452;8.466;2022-07-29T23:41:52;5.87;;;5.23;;
12459;SDS011;6295;49.452;8.466;2022-07-29T23:45:56;6.97;;;5.10;;
12459;SDS011;6295;49.452;8.466;2022-07-29T23:49:58;5.43;;;4.93;;
12459;SDS011;6295;49.452;8.466;2022-07-29T23:54:00;6.40;;;4.97;;
12459;SDS011;6295;49.452;8.466;2022-07-29T23:58:02;6.47;;;4.90;;
